Pagina principale
METAR-TAF:

METAR-TAF

Aeroporti :

Penn Valley Airport

Selinsgrove, Pennsylvania, Stati Uniti

latitudine: 40-49-09N, longitudine: 076-51-58W, altezza: 137 m

Osservazione

Il bollettino è stato emesso 1 ora e 7 minuti fa, alle 23:53 UTC
Vento calmo
Temperature 8°C
Umidità 71%
Pressione 1018 hPa
Visibilità: 16.1 km
Cielo sereno

METAR: KSEG 162353Z AUTO 00000KT 10SM CLR 08/03 A3007 RMK AO2 SLP186 T00830033 10128 20083 56002

Ora: 21:00 (01:00 UTC)


TAF: mancante

Osservazioni e previsioni meteorologiche di più di 4000 aeroporti (messaggi METAR e TAF).

Le stazioni disponibili sono rappresentate dai dischi gialli e rossi sulla carta.

Puntare il mouse per vedere il nome della stazione.

Clicca sopra per visualizzare le osservazioni e previsioni meteorologiche.

Per cambiare la mappa : fare clic sui pulsanti verdi con una croce nera per ingrandire, il pulsante verde con un trattino per diminuire, o sulla freccia verde per le mappe adiacenti.


METAR-TAF: